createdAt,value
2018-05-29T00:00:32.529Z,20.20
2018-05-29T00:03:00.270Z,20.07
2018-05-29T00:05:28.627Z,19.80
2018-05-29T00:07:57.114Z,20.00
2018-05-29T00:10:24.673Z,20.17
2018-05-29T00:12:52.344Z,20.07
2018-05-29T00:15:20.803Z,20.40
2018-05-29T00:17:48.422Z,20.87
2018-05-29T00:20:15.983Z,20.70
2018-05-29T00:22:43.700Z,20.33
2018-05-29T00:25:12.087Z,19.97
2018-05-29T00:27:40.423Z,20.33
2018-05-29T00:30:08.044Z,18.13
2018-05-29T00:32:35.608Z,20.90
2018-05-29T00:35:03.239Z,19.40
2018-05-29T00:37:30.783Z,19.83
2018-05-29T00:39:58.365Z,20.03
2018-05-29T00:42:25.935Z,20.23
2018-05-29T00:44:53.560Z,19.10
2018-05-29T00:47:21.896Z,19.67
2018-05-29T00:49:49.610Z,21.33
2018-05-29T00:52:17.135Z,20.63
2018-05-29T00:54:45.559Z,20.87
2018-05-29T00:57:13.184Z,21.10
2018-05-29T00:59:40.859Z,21.73
2018-05-29T01:02:10.366Z,21.93
2018-05-29T01:04:38.788Z,22.00
2018-05-29T01:07:06.424Z,21.37
2018-05-29T01:09:34.007Z,21.43
2018-05-29T01:12:02.322Z,20.93
2018-05-29T01:14:29.891Z,21.37
2018-05-29T01:16:57.548Z,21.43
2018-05-29T01:19:25.237Z,19.83
2018-05-29T01:21:52.845Z,20.10
2018-05-29T01:24:20.389Z,21.80
2018-05-29T01:26:48.772Z,22.07
2018-05-29T01:29:17.110Z,22.20
2018-05-29T01:31:44.743Z,23.07
2018-05-29T01:34:12.405Z,23.33
2018-05-29T01:36:40.019Z,22.20
2018-05-29T01:39:07.565Z,23.73
2018-05-29T01:41:35.187Z,22.27
2018-05-29T01:44:02.774Z,22.27
2018-05-29T01:46:30.501Z,22.40
2018-05-29T01:48:58.102Z,23.13
2018-05-29T01:51:26.303Z,23.27
2018-05-29T01:53:54.717Z,21.77
2018-05-29T01:56:22.457Z,22.23
2018-05-29T01:58:50.167Z,21.83
2018-05-29T02:01:17.986Z,22.40
2018-05-29T02:03:45.747Z,22.77
2018-05-29T02:06:13.489Z,22.37
2018-05-29T02:08:41.879Z,23.20
2018-05-29T02:11:09.515Z,21.80
2018-05-29T02:13:37.111Z,24.40
2018-05-29T02:16:04.862Z,23.43
2018-05-29T02:18:32.628Z,24.10
2018-05-29T02:21:00.406Z,23.10
2018-05-29T02:23:29.002Z,22.80
2018-05-29T02:25:56.850Z,23.00
2018-05-29T02:28:25.302Z,22.83
2018-05-29T02:30:52.899Z,23.93
2018-05-29T02:33:20.515Z,23.53
2018-05-29T02:35:48.149Z,23.13
2018-05-29T02:38:17.717Z,22.17
2018-05-29T02:40:45.466Z,24.03
2018-05-29T02:43:13.911Z,24.20
2018-05-29T02:45:42.313Z,26.57
2018-05-29T02:48:09.959Z,23.60
2018-05-29T02:50:37.500Z,24.53
2018-05-29T02:53:05.148Z,24.57
2018-05-29T02:55:32.814Z,25.43
2018-05-29T02:58:00.404Z,30.30
2018-05-29T03:00:28.100Z,28.27
2018-05-29T03:02:55.697Z,25.00
2018-05-29T03:05:23.424Z,32.10
2018-05-29T03:07:51.126Z,28.57
2018-05-29T03:10:18.765Z,23.77
2018-05-29T03:12:46.375Z,26.27
2018-05-29T03:15:14.096Z,27.90
2018-05-29T03:17:42.536Z,26.40
2018-05-29T03:20:10.401Z,27.17
2018-05-29T03:22:38.075Z,28.33
2018-05-29T03:25:06.478Z,25.07
2018-05-29T03:27:34.908Z,21.97
2018-05-29T03:30:03.283Z,24.27
2018-05-29T03:32:30.961Z,24.43
2018-05-29T03:34:58.634Z,26.00
2018-05-29T03:37:26.589Z,26.30
2018-05-29T03:39:54.381Z,27.13
2018-05-29T03:42:22.153Z,25.77
2018-05-29T03:44:49.853Z,26.20
2018-05-29T03:47:17.572Z,25.63
2018-05-29T03:49:45.512Z,25.67
2018-05-29T03:52:13.325Z,26.50
2018-05-29T03:54:41.190Z,26.70
2018-05-29T03:57:08.940Z,26.07
2018-05-29T03:59:37.512Z,26.83
2018-05-29T04:02:05.312Z,27.77
2018-05-29T04:04:34.024Z,26.73
2018-05-29T04:07:05.711Z,29.13
2018-05-29T04:09:33.369Z,29.33
2018-05-29T04:12:01.087Z,28.93
2018-05-29T04:14:28.846Z,27.73
2018-05-29T04:16:56.784Z,29.97
2018-05-29T04:19:24.627Z,29.53
2018-05-29T04:21:52.399Z,29.57
2018-05-29T04:24:20.019Z,31.03
2018-05-29T04:26:47.815Z,30.50
2018-05-29T04:29:16.357Z,29.60
2018-05-29T04:31:44.080Z,29.87
2018-05-29T04:34:11.688Z,32.50
2018-05-29T04:36:39.354Z,31.97
2018-05-29T04:39:07.805Z,29.57
2018-05-29T04:41:36.283Z,33.13
2018-05-29T04:44:03.916Z,31.07
2018-05-29T04:46:31.652Z,28.10
2018-05-29T04:48:59.319Z,29.97
2018-05-29T04:51:26.878Z,29.67
2018-05-29T04:53:54.565Z,31.13
2018-05-29T04:56:22.093Z,31.37
2018-05-29T04:58:49.643Z,31.17
2018-05-29T05:01:17.154Z,25.77
2018-05-29T05:03:45.468Z,31.40
2018-05-29T05:06:13.739Z,32.30
2018-05-29T05:08:42.045Z,28.00
2018-05-29T05:11:09.587Z,29.27
2018-05-29T05:13:37.135Z,32.37
2018-05-29T05:16:05.417Z,26.67
2018-05-29T05:18:33.751Z,31.00
2018-05-29T05:21:03.669Z,28.83
2018-05-29T05:23:31.282Z,28.67
2018-05-29T05:25:58.746Z,26.77
2018-05-29T05:28:26.296Z,29.30
2018-05-29T05:30:53.865Z,24.63
2018-05-29T05:33:21.383Z,27.10
2018-05-29T05:35:48.932Z,25.27
2018-05-29T05:38:16.447Z,26.30
2018-05-29T05:40:44.024Z,22.53
2018-05-29T05:43:11.541Z,20.67
2018-05-29T05:45:39.863Z,16.63
2018-05-29T05:48:07.367Z,16.77
2018-05-29T05:50:35.067Z,15.80
2018-05-29T05:53:02.753Z,15.70
2018-05-29T05:55:30.390Z,15.13
2018-05-29T05:57:58.105Z,14.70
2018-05-29T06:00:25.725Z,14.30
2018-05-29T06:02:53.359Z,15.13
2018-05-29T06:05:21.105Z,14.20
2018-05-29T06:07:49.585Z,15.07
2018-05-29T06:10:18.134Z,14.43
2018-05-29T06:12:45.799Z,13.90
2018-05-29T06:15:13.596Z,13.63
2018-05-29T06:17:42.175Z,12.47
2018-05-29T06:20:09.958Z,13.23
2018-05-29T06:22:38.492Z,13.77
2018-05-29T06:25:06.239Z,13.37
2018-05-29T06:27:34.119Z,13.27
2018-05-29T06:30:02.794Z,12.37
2018-05-29T06:32:30.646Z,12.87
2018-05-29T06:34:58.390Z,13.93
2018-05-29T06:37:26.348Z,12.73
2018-05-29T06:39:53.920Z,13.50
2018-05-29T06:42:22.344Z,13.57
2018-05-29T06:44:50.177Z,12.03
2018-05-29T06:47:17.946Z,12.43
2018-05-29T06:49:45.834Z,11.97
2018-05-29T06:52:13.668Z,12.23
2018-05-29T06:54:41.436Z,12.03
2018-05-29T06:57:09.208Z,12.70
2018-05-29T06:59:36.935Z,11.80
2018-05-29T07:02:04.553Z,11.43
2018-05-29T07:04:32.278Z,10.97
2018-05-29T07:07:00.088Z,11.10
2018-05-29T07:09:29.918Z,10.80
2018-05-29T07:11:57.738Z,10.20
2018-05-29T07:14:25.834Z,10.83
2018-05-29T07:16:53.649Z,10.57
2018-05-29T07:19:21.513Z,10.50
2018-05-29T07:21:49.322Z,10.27
2018-05-29T07:24:17.058Z,10.10
2018-05-29T07:26:44.706Z,10.33
2018-05-29T07:29:12.418Z,9.70
2018-05-29T07:31:40.232Z,9.60
2018-05-29T07:34:07.780Z,9.53
2018-05-29T07:36:36.204Z,8.83
2018-05-29T07:39:03.814Z,9.00
2018-05-29T07:41:31.637Z,8.97
2018-05-29T07:43:59.415Z,9.27
2018-05-29T07:46:27.174Z,8.13
2018-05-29T07:48:54.906Z,9.63
2018-05-29T07:51:23.327Z,8.13
2018-05-29T07:53:51.040Z,8.00
2018-05-29T07:56:18.721Z,8.80
2018-05-29T07:58:46.486Z,9.30
2018-05-29T08:01:14.292Z,7.93
2018-05-29T08:03:41.992Z,8.37
2018-05-29T08:06:09.689Z,7.33
2018-05-29T08:08:37.256Z,8.20
2018-05-29T08:11:04.862Z,8.33
2018-05-29T08:13:32.405Z,8.03
2018-05-29T08:16:00.072Z,8.03
2018-05-29T08:18:27.653Z,7.43
2018-05-29T08:20:55.300Z,7.53
2018-05-29T08:23:22.985Z,7.53
2018-05-29T08:25:50.526Z,7.60
2018-05-29T08:28:18.104Z,8.40
2018-05-29T08:30:45.679Z,7.53
2018-05-29T08:33:14.033Z,7.82
2018-05-29T08:35:41.580Z,7.80
2018-05-29T08:38:09.126Z,7.00
2018-05-29T08:40:36.668Z,7.70
2018-05-29T08:43:04.283Z,7.93
2018-05-29T08:45:32.583Z,8.00
2018-05-29T08:48:00.164Z,7.00
2018-05-29T08:50:27.730Z,7.53
2018-05-29T08:52:55.332Z,7.82
2018-05-29T08:55:22.856Z,7.12
2018-05-29T08:57:50.504Z,12.02
2018-05-29T09:00:18.048Z,7.72
2018-05-29T09:02:45.665Z,7.65
2018-05-29T09:05:13.196Z,7.65
2018-05-29T09:07:40.798Z,7.03
2018-05-29T09:10:08.376Z,6.82
2018-05-29T09:12:36.720Z,6.87
2018-05-29T09:15:04.313Z,6.57
2018-05-29T09:17:32.614Z,7.35
2018-05-29T09:20:00.287Z,7.12
2018-05-29T09:22:27.802Z,6.78
2018-05-29T09:24:55.479Z,6.78
2018-05-29T09:27:23.009Z,6.15
2018-05-29T09:29:50.704Z,6.10
2018-05-29T09:32:18.258Z,6.55
2018-05-29T09:34:46.357Z,6.05
2018-05-29T09:37:13.954Z,6.25
2018-05-29T09:39:43.595Z,6.05
2018-05-29T09:42:11.902Z,5.93
2018-05-29T09:44:39.499Z,6.65
2018-05-29T09:47:07.121Z,5.95
2018-05-29T09:49:34.721Z,6.40
2018-05-29T09:52:02.405Z,5.73
2018-05-29T09:54:30.083Z,5.87
2018-05-29T09:56:57.635Z,5.72
2018-05-29T09:59:25.162Z,6.00
2018-05-29T10:01:52.761Z,5.72
2018-05-29T10:04:20.295Z,5.57
2018-05-29T10:06:47.926Z,5.75
2018-05-29T10:09:15.455Z,6.07
2018-05-29T10:11:43.068Z,6.50
2018-05-29T10:14:10.652Z,6.53
2018-05-29T10:16:38.232Z,6.20
2018-05-29T10:19:05.762Z,5.93
2018-05-29T10:21:33.386Z,6.37
2018-05-29T10:24:00.976Z,6.28
2018-05-29T10:26:28.546Z,5.75
2018-05-29T10:28:56.206Z,5.35
2018-05-29T10:31:23.768Z,5.05
2018-05-29T10:33:51.335Z,4.68
2018-05-29T10:36:18.898Z,5.00
2018-05-29T10:38:47.285Z,4.70
2018-05-29T10:41:15.612Z,4.90
2018-05-29T10:43:43.178Z,4.68
2018-05-29T10:46:10.746Z,4.65
2018-05-29T10:48:38.348Z,4.68
2018-05-29T10:51:05.874Z,5.03
2018-05-29T10:53:34.222Z,4.87
2018-05-29T10:56:01.831Z,4.90
2018-05-29T10:58:29.464Z,4.95
2018-05-29T11:00:57.040Z,4.80
2018-05-29T11:03:24.654Z,5.30
2018-05-29T11:05:52.242Z,5.32
2018-05-29T11:08:20.632Z,5.30
2018-05-29T11:10:48.221Z,5.30
2018-05-29T11:13:15.864Z,5.32
2018-05-29T11:15:44.172Z,4.95
2018-05-29T11:18:11.746Z,5.62
2018-05-29T11:20:39.310Z,5.50
2018-05-29T11:23:06.978Z,4.30
2018-05-29T11:25:34.539Z,5.03
2018-05-29T11:28:02.125Z,5.25
2018-05-29T11:30:29.774Z,5.65
2018-05-29T11:32:57.345Z,4.93
2018-05-29T11:35:25.746Z,5.47
2018-05-29T11:37:53.332Z,4.87
2018-05-29T11:40:21.068Z,5.32
2018-05-29T11:42:48.595Z,5.18
2018-05-29T11:45:16.162Z,4.80
2018-05-29T11:47:43.772Z,5.37
2018-05-29T11:50:11.405Z,5.07
2018-05-29T11:52:39.737Z,5.10
2018-05-29T11:55:07.421Z,5.00
2018-05-29T11:57:34.992Z,4.00
2018-05-29T12:00:03.281Z,4.47
2018-05-29T12:02:30.856Z,4.55
2018-05-29T12:04:58.454Z,4.50
2018-05-29T12:07:26.374Z,4.65
2018-05-29T12:09:53.911Z,4.87
2018-05-29T12:12:28.124Z,5.18
2018-05-29T12:14:55.651Z,4.87
2018-05-29T12:17:23.236Z,5.22
2018-05-29T12:19:50.776Z,5.18
2018-05-29T12:22:18.368Z,4.95
2018-05-29T12:24:45.905Z,4.62
2018-05-29T12:27:13.564Z,5.30
2018-05-29T12:29:41.135Z,4.85
2018-05-29T12:32:08.753Z,4.50
2018-05-29T12:34:36.305Z,4.53
2018-05-29T12:37:03.850Z,5.00
2018-05-29T12:39:31.444Z,4.82
2018-05-29T12:41:59.847Z,4.72
2018-05-29T12:44:28.129Z,4.45
2018-05-29T12:46:55.731Z,4.90
2018-05-29T12:49:23.307Z,4.60
2018-05-29T12:51:51.676Z,4.62
2018-05-29T12:54:19.234Z,4.53
2018-05-29T12:56:46.776Z,4.53
2018-05-29T12:59:14.399Z,4.00
2018-05-29T13:01:41.920Z,4.43
2018-05-29T13:04:09.479Z,4.55
2018-05-29T13:06:37.076Z,4.47
2018-05-29T13:09:04.684Z,4.35
2018-05-29T13:11:33.044Z,4.22
2018-05-29T13:14:00.609Z,4.20
2018-05-29T13:16:28.164Z,3.87
2018-05-29T13:18:55.683Z,4.62
2018-05-29T13:21:23.260Z,3.83
2018-05-29T13:23:50.775Z,4.22
2018-05-29T13:26:18.377Z,3.97
2018-05-29T13:28:45.892Z,4.32
2018-05-29T13:31:13.469Z,4.40
2018-05-29T13:33:40.986Z,4.12
2018-05-29T13:36:09.098Z,3.90
2018-05-29T13:38:37.389Z,4.22
2018-05-29T13:41:04.951Z,3.45
2018-05-29T13:43:32.479Z,3.83
2018-05-29T13:46:00.028Z,4.10
2018-05-29T13:48:27.541Z,4.30
2018-05-29T13:50:55.099Z,4.53
2018-05-29T13:53:22.620Z,4.53
2018-05-29T13:55:50.187Z,4.03
2018-05-29T13:58:18.488Z,4.32
2018-05-29T14:00:46.016Z,4.25
2018-05-29T14:03:13.575Z,4.45
2018-05-29T14:05:41.132Z,4.78
2018-05-29T14:08:08.720Z,4.20
2018-05-29T14:10:36.242Z,4.57
2018-05-29T14:13:03.824Z,4.55
2018-05-29T14:15:32.125Z,4.30
2018-05-29T14:17:59.671Z,4.03
2018-05-29T14:20:27.197Z,4.10
2018-05-29T14:22:54.752Z,4.30
2018-05-29T14:25:22.300Z,4.53
2018-05-29T14:27:49.882Z,4.40
2018-05-29T14:30:17.874Z,4.60
2018-05-29T14:32:46.211Z,4.55
2018-05-29T14:35:13.769Z,4.45
2018-05-29T14:37:41.326Z,4.25
2018-05-29T14:40:08.978Z,4.62
2018-05-29T14:42:36.508Z,4.53
2018-05-29T14:45:04.091Z,4.70
2018-05-29T14:47:31.630Z,4.40
2018-05-29T14:49:59.183Z,4.22
2018-05-29T14:52:26.750Z,4.57
2018-05-29T14:54:54.274Z,4.82
2018-05-29T14:57:21.786Z,4.47
2018-05-29T14:59:49.333Z,4.70
2018-05-29T15:02:16.858Z,4.47
2018-05-29T15:04:44.420Z,4.85
2018-05-29T15:07:12.714Z,4.28
2018-05-29T15:09:40.260Z,4.20
2018-05-29T15:12:08.542Z,4.60
2018-05-29T15:14:36.848Z,4.22
2018-05-29T15:17:04.383Z,4.68
2018-05-29T15:19:31.970Z,4.28
2018-05-29T15:21:59.491Z,4.35
2018-05-29T15:24:26.996Z,4.33
2018-05-29T15:26:54.563Z,4.90
2018-05-29T15:29:22.088Z,5.00
2018-05-29T15:31:49.646Z,4.70
2018-05-29T15:34:17.147Z,4.57
2018-05-29T15:36:44.699Z,4.83
2018-05-29T15:39:12.218Z,4.70
2018-05-29T15:41:40.539Z,5.20
2018-05-29T15:44:08.051Z,5.00
2018-05-29T15:46:36.366Z,5.33
2018-05-29T15:49:04.171Z,5.00
2018-05-29T15:51:31.735Z,5.20
2018-05-29T15:53:59.252Z,5.37
2018-05-29T15:56:26.816Z,5.23
2018-05-29T15:58:54.321Z,4.97
2018-05-29T16:01:22.592Z,5.67
2018-05-29T16:03:50.932Z,5.37
2018-05-29T16:06:18.447Z,4.80
2018-05-29T16:08:45.987Z,5.10
2018-05-29T16:11:14.300Z,5.07
2018-05-29T16:13:41.847Z,5.07
2018-05-29T16:16:09.353Z,5.00
2018-05-29T16:18:36.897Z,4.93
2018-05-29T16:21:04.418Z,5.20
2018-05-29T16:23:31.977Z,4.77
2018-05-29T16:26:00.260Z,5.10
2018-05-29T16:28:27.844Z,4.80
2018-05-29T16:30:55.364Z,5.00
2018-05-29T16:33:23.686Z,5.03
2018-05-29T16:35:51.225Z,4.73
2018-05-29T16:38:18.771Z,5.00
2018-05-29T16:40:46.316Z,5.00
2018-05-29T16:43:13.841Z,4.27
2018-05-29T16:45:41.411Z,5.23
2018-05-29T16:48:08.957Z,4.57
2018-05-29T16:50:36.503Z,4.87
2018-05-29T16:53:04.035Z,5.30
2018-05-29T16:55:31.588Z,4.80
2018-05-29T16:57:59.127Z,4.70
2018-05-29T17:00:26.680Z,4.83
2018-05-29T17:02:54.191Z,5.83
2018-05-29T17:05:21.759Z,6.33
2018-05-29T17:07:49.298Z,6.17
2018-05-29T17:10:16.867Z,6.30
2018-05-29T17:12:44.388Z,6.53
2018-05-29T17:15:12.752Z,6.67
2018-05-29T17:17:40.244Z,6.47
2018-05-29T17:20:07.805Z,5.80
2018-05-29T17:22:35.326Z,6.33
2018-05-29T17:25:02.844Z,6.13
2018-05-29T17:27:30.410Z,6.43
2018-05-29T17:29:57.929Z,6.57
2018-05-29T17:32:25.497Z,6.97
2018-05-29T17:34:53.781Z,6.80
2018-05-29T17:37:21.332Z,6.40
2018-05-29T17:39:49.616Z,6.60
2018-05-29T17:42:17.166Z,7.13
2018-05-29T17:44:45.438Z,6.67
2018-05-29T17:47:13.758Z,6.97
2018-05-29T17:49:41.288Z,6.33
2018-05-29T17:52:08.843Z,6.70
2018-05-29T17:54:37.138Z,6.27
2018-05-29T17:57:04.692Z,8.67
2018-05-29T17:59:33.214Z,8.83
2018-05-29T18:02:00.774Z,8.30
2018-05-29T18:04:28.287Z,8.53
2018-05-29T18:06:55.854Z,8.03
2018-05-29T18:09:23.372Z,7.83
2018-05-29T18:11:50.942Z,8.53
2018-05-29T18:14:18.457Z,8.57
2018-05-29T18:16:45.972Z,8.60
2018-05-29T18:19:13.532Z,8.87
2018-05-29T18:21:43.058Z,7.53
2018-05-29T18:24:10.617Z,7.83
2018-05-29T18:26:38.141Z,7.87
2018-05-29T18:29:05.700Z,8.13
2018-05-29T18:31:33.223Z,7.30
2018-05-29T18:34:00.802Z,7.10
2018-05-29T18:36:28.317Z,6.13
2018-05-29T18:38:55.860Z,6.93
2018-05-29T18:41:24.129Z,6.47
2018-05-29T18:43:52.446Z,6.53
2018-05-29T18:46:19.960Z,6.37
2018-05-29T18:48:48.286Z,6.67
2018-05-29T18:51:15.838Z,7.03
2018-05-29T18:53:43.399Z,7.10
2018-05-29T18:56:10.941Z,6.33
2018-05-29T18:58:38.487Z,7.20
2018-05-29T19:01:05.994Z,7.33
2018-05-29T19:03:33.559Z,7.03
2018-05-29T19:06:01.906Z,6.77
2018-05-29T19:08:29.438Z,6.50
2018-05-29T19:10:57.751Z,6.57
2018-05-29T19:13:25.290Z,6.97
2018-05-29T19:15:52.861Z,7.93
2018-05-29T19:18:20.373Z,7.00
2018-05-29T19:20:47.922Z,7.13
2018-05-29T19:23:15.448Z,7.90
2018-05-29T19:25:43.711Z,7.20
2018-05-29T19:28:11.247Z,7.83
2018-05-29T19:30:38.813Z,8.50
2018-05-29T19:33:06.338Z,8.27
2018-05-29T19:35:33.905Z,8.67
2018-05-29T19:38:02.205Z,8.30
2018-05-29T19:40:30.536Z,8.37
2018-05-29T19:42:58.070Z,7.50
2018-05-29T19:45:25.579Z,7.10
2018-05-29T19:47:53.941Z,6.67
2018-05-29T19:50:21.471Z,7.37
2018-05-29T19:52:49.011Z,7.77
2018-05-29T19:55:16.535Z,6.87
2018-05-29T19:57:44.071Z,7.50
2018-05-29T20:00:11.579Z,7.37
2018-05-29T20:02:39.901Z,7.23
2018-05-29T20:05:07.436Z,6.87
2018-05-29T20:07:34.977Z,7.13
2018-05-29T20:10:02.511Z,6.83
2018-05-29T20:12:30.076Z,7.07
2018-05-29T20:14:57.674Z,7.43
2018-05-29T20:17:30.951Z,7.43
2018-05-29T20:19:58.502Z,7.07
2018-05-29T20:22:26.045Z,7.50
2018-05-29T20:24:53.563Z,7.37
2018-05-29T20:27:21.112Z,7.60
2018-05-29T20:29:48.655Z,8.33
2018-05-29T20:32:16.160Z,8.13
2018-05-29T20:34:43.756Z,9.00
2018-05-29T20:37:12.056Z,8.77
2018-05-29T20:39:39.596Z,8.30
2018-05-29T20:42:07.874Z,8.40
2018-05-29T20:44:35.440Z,9.90
2018-05-29T20:47:02.968Z,8.90
2018-05-29T20:49:30.503Z,8.37
2018-05-29T20:51:58.024Z,8.27
2018-05-29T20:54:25.618Z,7.87
2018-05-29T20:56:53.136Z,8.67
2018-05-29T20:59:20.722Z,8.90
2018-05-29T21:01:48.237Z,8.77
2018-05-29T21:04:15.797Z,8.20
2018-05-29T21:06:44.086Z,8.50
2018-05-29T21:09:12.407Z,8.20
2018-05-29T21:11:39.906Z,7.80
2018-05-29T21:14:07.416Z,8.20
2018-05-29T21:16:34.962Z,8.93
2018-05-29T21:19:02.475Z,8.17
2018-05-29T21:21:30.054Z,8.43
2018-05-29T21:23:58.339Z,8.30
2018-05-29T21:26:26.666Z,8.80
2018-05-29T21:28:54.172Z,8.40
2018-05-29T21:31:21.711Z,8.57
2018-05-29T21:33:49.215Z,8.40
2018-05-29T21:36:16.774Z,8.30
2018-05-29T21:38:44.284Z,7.70
2018-05-29T21:41:11.831Z,6.70
2018-05-29T21:43:39.731Z,7.70
2018-05-29T21:46:07.277Z,7.73
2018-05-29T21:48:34.795Z,7.63
2018-05-29T21:51:02.305Z,7.10
2018-05-29T21:53:29.906Z,6.90
2018-05-29T21:55:58.153Z,7.83
2018-05-29T21:58:25.695Z,7.37
2018-05-29T22:00:53.213Z,7.50
2018-05-29T22:03:20.762Z,7.13
2018-05-29T22:05:50.010Z,8.40
2018-05-29T22:08:17.557Z,8.17
2018-05-29T22:10:45.103Z,7.60
2018-05-29T22:13:12.639Z,8.77
2018-05-29T22:15:40.172Z,8.83
2018-05-29T22:18:07.704Z,8.47
2018-05-29T22:20:35.248Z,8.67
2018-05-29T22:23:02.751Z,7.63
2018-05-29T22:25:30.295Z,9.47
2018-05-29T22:27:57.823Z,8.87
2018-05-29T22:30:25.437Z,9.30
2018-05-29T22:32:52.943Z,9.47
2018-05-29T22:35:20.503Z,9.93
2018-05-29T22:37:48.007Z,10.10
2018-05-29T22:40:15.556Z,9.40
2018-05-29T22:42:43.835Z,9.67
2018-05-29T22:45:11.384Z,9.77
2018-05-29T22:47:38.923Z,10.73
2018-05-29T22:50:06.456Z,8.60
2018-05-29T22:52:33.991Z,10.03
2018-05-29T22:55:01.537Z,9.30
2018-05-29T22:57:29.078Z,9.67
2018-05-29T22:59:56.634Z,10.97
2018-05-29T23:02:24.180Z,9.73
2018-05-29T23:04:51.748Z,10.40
2018-05-29T23:07:19.272Z,10.07
2018-05-29T23:09:46.792Z,10.27
2018-05-29T23:12:15.099Z,9.93
2018-05-29T23:14:42.632Z,9.57
2018-05-29T23:17:10.947Z,8.63
2018-05-29T23:19:38.455Z,8.20
2018-05-29T23:22:05.991Z,9.03
2018-05-29T23:24:33.499Z,8.90
2018-05-29T23:27:01.038Z,8.77
2018-05-29T23:29:29.308Z,9.13
2018-05-29T23:31:56.857Z,9.80
2018-05-29T23:34:24.363Z,9.70
2018-05-29T23:36:51.913Z,8.70
2018-05-29T23:39:19.442Z,9.70
2018-05-29T23:41:47.772Z,9.67
2018-05-29T23:44:15.287Z,9.40
2018-05-29T23:46:42.847Z,9.30
2018-05-29T23:49:11.123Z,8.57
2018-05-29T23:51:39.446Z,9.33
2018-05-29T23:54:06.966Z,9.73
2018-05-29T23:56:34.495Z,10.37
2018-05-29T23:59:02.053Z,10.70
